sensor_id;sensor_type;location;lat;lon;timestamp;pressure;altitude;pressure_sealevel;temperature;humidity
10202;BME280;5143;42.584;23.164;2023-08-06T00:00:21;91571.94;;;17.78;100.00
10202;BME280;5143;42.584;23.164;2023-08-06T00:02:49;91587.78;;;17.69;100.00
10202;BME280;5143;42.584;23.164;2023-08-06T00:05:16;91601.94;;;17.58;100.00
10202;BME280;5143;42.584;23.164;2023-08-06T00:07:43;91609.13;;;17.69;100.00
10202;BME280;5143;42.584;23.164;2023-08-06T00:10:10;91599.38;;;17.60;100.00
10202;BME280;5143;42.584;23.164;2023-08-06T00:12:37;91582.41;;;17.49;100.00
10202;BME280;5143;42.584;23.164;2023-08-06T00:15:05;91579.09;;;17.50;100.00
10202;BME280;5143;42.584;23.164;2023-08-06T00:17:33;91571.19;;;17.47;100.00
10202;BME280;5143;42.584;23.164;2023-08-06T00:20:00;91570.06;;;17.50;100.00
10202;BME280;5143;42.584;23.164;2023-08-06T00:22:30;91554.66;;;17.54;100.00
10202;BME280;5143;42.584;23.164;2023-08-06T00:24:57;91556.84;;;17.56;100.00
10202;BME280;5143;42.584;23.164;2023-08-06T00:27:24;91569.38;;;17.72;100.00
10202;BME280;5143;42.584;23.164;2023-08-06T00:29:50;91568.63;;;17.64;100.00
10202;BME280;5143;42.584;23.164;2023-08-06T00:32:18;91558.91;;;17.71;100.00
10202;BME280;5143;42.584;23.164;2023-08-06T00:34:46;91543.81;;;17.79;100.00
10202;BME280;5143;42.584;23.164;2023-08-06T00:37:15;91546.19;;;17.75;100.00
10202;BME280;5143;42.584;23.164;2023-08-06T00:39:41;91536.06;;;17.70;100.00
10202;BME280;5143;42.584;23.164;2023-08-06T00:42:08;91551.72;;;17.75;100.00
10202;BME280;5143;42.584;23.164;2023-08-06T00:44:35;91561.09;;;17.72;100.00
10202;BME280;5143;42.584;23.164;2023-08-06T00:47:02;91556.47;;;17.75;100.00
10202;BME280;5143;42.584;23.164;2023-08-06T00:49:29;91565.31;;;17.81;100.00
10202;BME280;5143;42.584;23.164;2023-08-06T00:51:58;91564.22;;;17.91;100.00
10202;BME280;5143;42.584;23.164;2023-08-06T00:54:25;91557.22;;;17.90;100.00
10202;BME280;5143;42.584;23.164;2023-08-06T00:56:53;91544.72;;;17.82;100.00
10202;BME280;5143;42.584;23.164;2023-08-06T00:59:20;91538.81;;;17.78;100.00
10202;BME280;5143;42.584;23.164;2023-08-06T01:01:47;91515.81;;;17.83;100.00
10202;BME280;5143;42.584;23.164;2023-08-06T01:04:15;91501.63;;;17.86;100.00
10202;BME280;5143;42.584;23.164;2023-08-06T01:06:46;91501.28;;;17.90;100.00
10202;BME280;5143;42.584;23.164;2023-08-06T01:09:25;91521.53;;;17.85;100.00
10202;BME280;5143;42.584;23.164;2023-08-06T01:12:01;91527.78;;;17.70;100.00
10202;BME280;5143;42.584;23.164;2023-08-06T01:14:35;91531.84;;;17.69;100.00
10202;BME280;5143;42.584;23.164;2023-08-06T01:17:04;91532.38;;;17.75;100.00
10202;BME280;5143;42.584;23.164;2023-08-06T01:19:31;91528.72;;;17.73;100.00
10202;BME280;5143;42.584;23.164;2023-08-06T01:21:59;91524.31;;;17.77;100.00
10202;BME280;5143;42.584;23.164;2023-08-06T01:24:26;91517.47;;;17.78;100.00
10202;BME280;5143;42.584;23.164;2023-08-06T01:27:00;91517.84;;;17.82;100.00
10202;BME280;5143;42.584;23.164;2023-08-06T01:29:34;91520.44;;;17.65;100.00
10202;BME280;5143;42.584;23.164;2023-08-06T01:32:02;91529.28;;;17.71;100.00
10202;BME280;5143;42.584;23.164;2023-08-06T01:34:32;91527.97;;;17.87;100.00
10202;BME280;5143;42.584;23.164;2023-08-06T01:37:01;91509.72;;;17.92;100.00
10202;BME280;5143;42.584;23.164;2023-08-06T01:39:29;91508.78;;;17.97;100.00
10202;BME280;5143;42.584;23.164;2023-08-06T01:41:56;91520.75;;;17.99;100.00
10202;BME280;5143;42.584;23.164;2023-08-06T01:44:22;91541.34;;;18.13;100.00
10202;BME280;5143;42.584;23.164;2023-08-06T01:46:49;91531.59;;;18.05;100.00
10202;BME280;5143;42.584;23.164;2023-08-06T01:49:16;91507.13;;;17.94;100.00
10202;BME280;5143;42.584;23.164;2023-08-06T01:51:43;91492.81;;;17.80;100.00
10202;BME280;5143;42.584;23.164;2023-08-06T01:54:11;91507.91;;;17.87;100.00
10202;BME280;5143;42.584;23.164;2023-08-06T01:56:38;91485.84;;;17.79;100.00
10202;BME280;5143;42.584;23.164;2023-08-06T01:59:04;91501.28;;;17.82;100.00
10202;BME280;5143;42.584;23.164;2023-08-06T02:01:31;91513.41;;;17.87;100.00
10202;BME280;5143;42.584;23.164;2023-08-06T02:03:58;91510.09;;;17.88;100.00
10202;BME280;5143;42.584;23.164;2023-08-06T02:06:24;91511.56;;;17.89;100.00
10202;BME280;5143;42.584;23.164;2023-08-06T02:08:51;91523.19;;;17.88;100.00
10202;BME280;5143;42.584;23.164;2023-08-06T02:11:19;91541.38;;;17.98;100.00
10202;BME280;5143;42.584;23.164;2023-08-06T02:13:46;91548.41;;;17.84;100.00
10202;BME280;5143;42.584;23.164;2023-08-06T02:16:13;91567.72;;;17.77;100.00
10202;BME280;5143;42.584;23.164;2023-08-06T02:18:39;91562.41;;;17.71;100.00
10202;BME280;5143;42.584;23.164;2023-08-06T02:21:06;91564.41;;;17.71;100.00
10202;BME280;5143;42.584;23.164;2023-08-06T02:23:33;91545.28;;;17.65;100.00
10202;BME280;5143;42.584;23.164;2023-08-06T02:26:00;91539.56;;;17.71;100.00
10202;BME280;5143;42.584;23.164;2023-08-06T02:28:29;91535.88;;;17.76;100.00
10202;BME280;5143;42.584;23.164;2023-08-06T02:30:56;91519.69;;;17.72;100.00
10202;BME280;5143;42.584;23.164;2023-08-06T02:33:23;91520.25;;;17.78;100.00
10202;BME280;5143;42.584;23.164;2023-08-06T02:35:49;91532.75;;;17.87;100.00
10202;BME280;5143;42.584;23.164;2023-08-06T02:38:16;91514.00;;;17.85;100.00
10202;BME280;5143;42.584;23.164;2023-08-06T02:40:43;91512.72;;;17.71;100.00
10202;BME280;5143;42.584;23.164;2023-08-06T02:43:11;91530.00;;;17.72;100.00
10202;BME280;5143;42.584;23.164;2023-08-06T02:45:39;91519.91;;;17.74;100.00
10202;BME280;5143;42.584;23.164;2023-08-06T02:48:05;91516.56;;;17.68;100.00
10202;BME280;5143;42.584;23.164;2023-08-06T02:50:37;91519.31;;;17.76;100.00
10202;BME280;5143;42.584;23.164;2023-08-06T02:53:05;91504.06;;;17.82;100.00
10202;BME280;5143;42.584;23.164;2023-08-06T02:55:32;91465.06;;;17.63;100.00
10202;BME280;5143;42.584;23.164;2023-08-06T02:57:59;91460.81;;;17.77;100.00
10202;BME280;5143;42.584;23.164;2023-08-06T03:00:26;91478.44;;;17.89;100.00
10202;BME280;5143;42.584;23.164;2023-08-06T03:02:54;91467.41;;;17.89;100.00
10202;BME280;5143;42.584;23.164;2023-08-06T03:05:21;91479.19;;;17.90;100.00
10202;BME280;5143;42.584;23.164;2023-08-06T03:07:47;91490.03;;;17.95;100.00
10202;BME280;5143;42.584;23.164;2023-08-06T03:10:14;91491.13;;;17.92;100.00
10202;BME280;5143;42.584;23.164;2023-08-06T03:12:41;91503.09;;;17.95;100.00
10202;BME280;5143;42.584;23.164;2023-08-06T03:15:09;91520.22;;;17.93;100.00
10202;BME280;5143;42.584;23.164;2023-08-06T03:17:35;91529.25;;;18.01;100.00
10202;BME280;5143;42.584;23.164;2023-08-06T03:20:05;91522.63;;;17.89;100.00
10202;BME280;5143;42.584;23.164;2023-08-06T03:22:31;91521.72;;;17.79;100.00
10202;BME280;5143;42.584;23.164;2023-08-06T03:24:58;91525.75;;;17.86;100.00
10202;BME280;5143;42.584;23.164;2023-08-06T03:27:25;91518.03;;;17.84;100.00
10202;BME280;5143;42.584;23.164;2023-08-06T03:29:52;91533.66;;;17.89;100.00
10202;BME280;5143;42.584;23.164;2023-08-06T03:32:18;91523.91;;;17.88;100.00
10202;BME280;5143;42.584;23.164;2023-08-06T03:34:46;91529.97;;;17.94;100.00
10202;BME280;5143;42.584;23.164;2023-08-06T03:37:14;91533.84;;;17.91;100.00
10202;BME280;5143;42.584;23.164;2023-08-06T03:39:40;91533.13;;;17.91;100.00
10202;BME280;5143;42.584;23.164;2023-08-06T03:42:07;91531.63;;;17.97;100.00
10202;BME280;5143;42.584;23.164;2023-08-06T03:44:34;91537.31;;;18.07;100.00
10202;BME280;5143;42.584;23.164;2023-08-06T03:47:00;91540.44;;;18.11;100.00
10202;BME280;5143;42.584;23.164;2023-08-06T03:49:27;91541.91;;;18.12;100.00
10202;BME280;5143;42.584;23.164;2023-08-06T03:51:54;91552.22;;;18.11;100.00
10202;BME280;5143;42.584;23.164;2023-08-06T03:54:22;91565.66;;;18.15;100.00
10202;BME280;5143;42.584;23.164;2023-08-06T03:56:49;91570.78;;;18.18;100.00
10202;BME280;5143;42.584;23.164;2023-08-06T03:59:15;91568.59;;;18.32;100.00
10202;BME280;5143;42.584;23.164;2023-08-06T04:01:42;91565.44;;;18.36;100.00
10202;BME280;5143;42.584;23.164;2023-08-06T04:04:09;91563.41;;;18.36;100.00
10202;BME280;5143;42.584;23.164;2023-08-06T04:06:35;91558.63;;;18.37;100.00
10202;BME280;5143;42.584;23.164;2023-08-06T04:09:03;91566.72;;;18.42;100.00
10202;BME280;5143;42.584;23.164;2023-08-06T04:11:31;91567.78;;;18.54;100.00
10202;BME280;5143;42.584;23.164;2023-08-06T04:13:58;91568.00;;;18.49;100.00
10202;BME280;5143;42.584;23.164;2023-08-06T04:16:24;91554.53;;;18.53;100.00
10202;BME280;5143;42.584;23.164;2023-08-06T04:18:52;91555.28;;;18.38;100.00
10202;BME280;5143;42.584;23.164;2023-08-06T04:21:20;91550.28;;;18.52;100.00
10202;BME280;5143;42.584;23.164;2023-08-06T04:23:47;91536.69;;;18.54;100.00
10202;BME280;5143;42.584;23.164;2023-08-06T04:26:14;91550.44;;;18.69;100.00
10202;BME280;5143;42.584;23.164;2023-08-06T04:28:42;91551.66;;;18.83;100.00
10202;BME280;5143;42.584;23.164;2023-08-06T04:31:09;91557.72;;;18.89;100.00
10202;BME280;5143;42.584;23.164;2023-08-06T04:33:35;91550.72;;;18.88;100.00
10202;BME280;5143;42.584;23.164;2023-08-06T04:36:02;91545.88;;;18.96;100.00
10202;BME280;5143;42.584;23.164;2023-08-06T04:38:29;91533.66;;;19.07;100.00
10202;BME280;5143;42.584;23.164;2023-08-06T04:40:56;91525.72;;;19.11;100.00
10202;BME280;5143;42.584;23.164;2023-08-06T04:43:23;91515.03;;;19.07;100.00
10202;BME280;5143;42.584;23.164;2023-08-06T04:45:53;91524.53;;;19.21;100.00
10202;BME280;5143;42.584;23.164;2023-08-06T04:48:20;91515.78;;;19.32;100.00
10202;BME280;5143;42.584;23.164;2023-08-06T04:50:47;91515.03;;;19.39;100.00
10202;BME280;5143;42.584;23.164;2023-08-06T04:53:14;91515.78;;;19.32;100.00
10202;BME280;5143;42.584;23.164;2023-08-06T04:55:42;91507.28;;;19.38;100.00
10202;BME280;5143;42.584;23.164;2023-08-06T04:58:09;91506.16;;;19.41;100.00
10202;BME280;5143;42.584;23.164;2023-08-06T05:00:36;91501.38;;;19.41;100.00
10202;BME280;5143;42.584;23.164;2023-08-06T05:03:05;91506.19;;;19.33;100.00
10202;BME280;5143;42.584;23.164;2023-08-06T05:05:32;91514.16;;;19.29;100.00
10202;BME280;5143;42.584;23.164;2023-08-06T05:07:59;91515.72;;;19.15;100.00
10202;BME280;5143;42.584;23.164;2023-08-06T05:10:26;91520.28;;;19.20;100.00
10202;BME280;5143;42.584;23.164;2023-08-06T05:12:53;91520.28;;;19.20;100.00
10202;BME280;5143;42.584;23.164;2023-08-06T05:15:20;91516.91;;;19.29;100.00
10202;BME280;5143;42.584;23.164;2023-08-06T05:17:47;91523.22;;;19.55;100.00
10202;BME280;5143;42.584;23.164;2023-08-06T05:20:15;91513.34;;;19.69;100.00
10202;BME280;5143;42.584;23.164;2023-08-06T05:22:42;91515.06;;;19.57;100.00
10202;BME280;5143;42.584;23.164;2023-08-06T05:25:13;91509.91;;;19.61;100.00
10202;BME280;5143;42.584;23.164;2023-08-06T05:27:39;91512.66;;;19.61;100.00
10202;BME280;5143;42.584;23.164;2023-08-06T05:30:07;91514.41;;;19.73;100.00
10202;BME280;5143;42.584;23.164;2023-08-06T05:32:34;91506.63;;;19.55;100.00
10202;BME280;5143;42.584;23.164;2023-08-06T05:35:01;91501.94;;;19.32;100.00
10202;BME280;5143;42.584;23.164;2023-08-06T05:37:29;91503.69;;;19.53;100.00
10202;BME280;5143;42.584;23.164;2023-08-06T05:39:56;91503.59;;;19.85;100.00
10202;BME280;5143;42.584;23.164;2023-08-06T05:42:23;91492.13;;;19.88;100.00
10202;BME280;5143;42.584;23.164;2023-08-06T05:44:50;91503.66;;;19.77;100.00
10202;BME280;5143;42.584;23.164;2023-08-06T05:47:16;91501.78;;;19.80;100.00
10202;BME280;5143;42.584;23.164;2023-08-06T05:49:44;91507.66;;;19.84;100.00
10202;BME280;5143;42.584;23.164;2023-08-06T05:52:11;91520.22;;;19.85;100.00
10202;BME280;5143;42.584;23.164;2023-08-06T05:54:40;91509.91;;;19.78;100.00
10202;BME280;5143;42.584;23.164;2023-08-06T05:57:07;91519.41;;;19.92;100.00
10202;BME280;5143;42.584;23.164;2023-08-06T05:59:34;91520.88;;;19.93;100.00
10202;BME280;5143;42.584;23.164;2023-08-06T06:02:01;91510.94;;;20.07;100.00
10202;BME280;5143;42.584;23.164;2023-08-06T06:04:28;91520.28;;;20.36;100.00
10202;BME280;5143;42.584;23.164;2023-08-06T06:06:54;91527.53;;;20.66;100.00
10202;BME280;5143;42.584;23.164;2023-08-06T06:09:21;91529.78;;;20.94;100.00
10202;BME280;5143;42.584;23.164;2023-08-06T06:11:50;91535.34;;;21.21;100.00
10202;BME280;5143;42.584;23.164;2023-08-06T06:14:16;91533.38;;;21.58;100.00
10202;BME280;5143;42.584;23.164;2023-08-06T06:16:43;91538.66;;;21.63;100.00
10202;BME280;5143;42.584;23.164;2023-08-06T06:19:10;91548.25;;;21.26;100.00
10202;BME280;5143;42.584;23.164;2023-08-06T06:21:38;91550.81;;;20.97;100.00
10202;BME280;5143;42.584;23.164;2023-08-06T06:24:05;91559.16;;;20.80;100.00
10202;BME280;5143;42.584;23.164;2023-08-06T06:26:33;91569.75;;;20.74;100.00
10202;BME280;5143;42.584;23.164;2023-08-06T06:29:01;91565.53;;;20.56;100.00
10202;BME280;5143;42.584;23.164;2023-08-06T06:31:28;91578.25;;;20.59;100.00
10202;BME280;5143;42.584;23.164;2023-08-06T06:33:54;91577.28;;;20.30;100.00
10202;BME280;5143;42.584;23.164;2023-08-06T06:36:21;91592.06;;;20.25;100.00
10202;BME280;5143;42.584;23.164;2023-08-06T06:38:49;91591.59;;;19.94;100.00
10202;BME280;5143;42.584;23.164;2023-08-06T06:41:15;91593.41;;;19.74;100.00
10202;BME280;5143;42.584;23.164;2023-08-06T06:43:42;91597.59;;;19.83;100.00
10202;BME280;5143;42.584;23.164;2023-08-06T06:46:10;91599.38;;;19.63;100.00
10202;BME280;5143;42.584;23.164;2023-08-06T06:48:37;91593.19;;;19.48;100.00
10202;BME280;5143;42.584;23.164;2023-08-06T06:51:03;91602.06;;;19.46;100.00
10202;BME280;5143;42.584;23.164;2023-08-06T06:53:30;91603.81;;;19.66;100.00
10202;BME280;5143;42.584;23.164;2023-08-06T06:56:01;91603.28;;;20.10;100.00
10202;BME280;5143;42.584;23.164;2023-08-06T06:58:28;91597.50;;;20.57;100.00
10202;BME280;5143;42.584;23.164;2023-08-06T07:00:55;91592.38;;;21.85;100.00
10202;BME280;5143;42.584;23.164;2023-08-06T07:03:23;91599.19;;;22.38;100.00
10202;BME280;5143;42.584;23.164;2023-08-06T07:05:50;91564.56;;;22.12;100.00
10202;BME280;5143;42.584;23.164;2023-08-06T07:08:17;91596.47;;;21.84;100.00
10202;BME280;5143;42.584;23.164;2023-08-06T07:10:45;91607.19;;;21.61;100.00
10202;BME280;5143;42.584;23.164;2023-08-06T07:13:11;91628.31;;;21.73;100.00
10202;BME280;5143;42.584;23.164;2023-08-06T07:15:38;91634.06;;;22.12;100.00
10202;BME280;5143;42.584;23.164;2023-08-06T07:18:05;91628.94;;;22.54;100.00
10202;BME280;5143;42.584;23.164;2023-08-06T07:20:33;91638.38;;;22.68;100.00
10202;BME280;5143;42.584;23.164;2023-08-06T07:23:00;91635.16;;;23.01;100.00
10202;BME280;5143;42.584;23.164;2023-08-06T07:25:27;91635.03;;;23.18;100.00
10202;BME280;5143;42.584;23.164;2023-08-06T07:27:54;91639.56;;;22.84;100.00
10202;BME280;5143;42.584;23.164;2023-08-06T07:30:22;91646.63;;;23.43;100.00
10202;BME280;5143;42.584;23.164;2023-08-06T07:32:48;91636.34;;;23.55;100.00
10202;BME280;5143;42.584;23.164;2023-08-06T07:35:15;91640.47;;;23.44;100.00
10202;BME280;5143;42.584;23.164;2023-08-06T07:37:43;91630.13;;;23.85;100.00
10202;BME280;5143;42.584;23.164;2023-08-06T07:40:11;91644.88;;;25.42;100.00
10202;BME280;5143;42.584;23.164;2023-08-06T07:42:37;91641.25;;;27.21;93.85
10202;BME280;5143;42.584;23.164;2023-08-06T07:45:05;91649.19;;;29.30;78.78
10202;BME280;5143;42.584;23.164;2023-08-06T07:47:32;91651.69;;;28.97;70.28
10202;BME280;5143;42.584;23.164;2023-08-06T07:49:59;91631.00;;;28.38;69.58
10202;BME280;5143;42.584;23.164;2023-08-06T07:52:26;91643.25;;;28.97;66.33
10202;BME280;5143;42.584;23.164;2023-08-06T07:54:54;91646.06;;;29.80;64.95
10202;BME280;5143;42.584;23.164;2023-08-06T07:57:20;91644.72;;;29.25;61.35
10202;BME280;5143;42.584;23.164;2023-08-06T07:59:47;91644.66;;;29.66;63.89
10202;BME280;5143;42.584;23.164;2023-08-06T08:02:14;91647.09;;;30.16;62.20
10202;BME280;5143;42.584;23.164;2023-08-06T08:04:41;91647.28;;;30.20;59.40
10202;BME280;5143;42.584;23.164;2023-08-06T08:07:09;91652.22;;;29.77;61.27
10202;BME280;5143;42.584;23.164;2023-08-06T08:09:36;91637.00;;;28.71;62.05
10202;BME280;5143;42.584;23.164;2023-08-06T08:12:05;91625.81;;;27.08;67.05
10202;BME280;5143;42.584;23.164;2023-08-06T08:14:32;91637.41;;;26.68;71.37
10202;BME280;5143;42.584;23.164;2023-08-06T08:17:01;91633.50;;;26.96;73.16
10202;BME280;5143;42.584;23.164;2023-08-06T08:19:27;91621.44;;;27.53;68.20
10202;BME280;5143;42.584;23.164;2023-08-06T08:21:54;91634.53;;;27.74;67.51
10202;BME280;5143;42.584;23.164;2023-08-06T08:24:21;91617.50;;;27.59;69.70
10202;BME280;5143;42.584;23.164;2023-08-06T08:26:49;91633.91;;;28.79;67.33
10202;BME280;5143;42.584;23.164;2023-08-06T08:29:17;91629.09;;;28.67;61.29
10202;BME280;5143;42.584;23.164;2023-08-06T08:31:44;91637.69;;;28.58;65.00
10202;BME280;5143;42.584;23.164;2023-08-06T08:34:11;91639.81;;;28.32;61.27
10202;BME280;5143;42.584;23.164;2023-08-06T08:36:37;91630.75;;;27.95;63.57
10202;BME280;5143;42.584;23.164;2023-08-06T08:39:04;91619.13;;;27.02;67.35
10202;BME280;5143;42.584;23.164;2023-08-06T08:41:33;91624.19;;;27.17;67.78
10202;BME280;5143;42.584;23.164;2023-08-06T08:44:00;91622.94;;;26.36;69.46
10202;BME280;5143;42.584;23.164;2023-08-06T08:46:29;91617.34;;;25.80;73.32
10202;BME280;5143;42.584;23.164;2023-08-06T08:48:59;91620.06;;;25.36;73.66
10202;BME280;5143;42.584;23.164;2023-08-06T08:51:27;91623.03;;;25.17;72.39
10202;BME280;5143;42.584;23.164;2023-08-06T08:53:55;91621.63;;;25.06;72.71
10202;BME280;5143;42.584;23.164;2023-08-06T08:56:23;91609.78;;;24.75;75.74
10202;BME280;5143;42.584;23.164;2023-08-06T08:58:50;91612.34;;;24.92;77.98
10202;BME280;5143;42.584;23.164;2023-08-06T09:01:18;91613.91;;;25.16;72.96
10202;BME280;5143;42.584;23.164;2023-08-06T09:03:48;91611.91;;;25.50;74.49
10202;BME280;5143;42.584;23.164;2023-08-06T09:06:17;91609.88;;;26.06;71.21
10202;BME280;5143;42.584;23.164;2023-08-06T09:08:50;91618.44;;;26.31;71.26
10202;BME280;5143;42.584;23.164;2023-08-06T09:11:18;91609.03;;;26.15;69.05
10202;BME280;5143;42.584;23.164;2023-08-06T09:13:47;91603.31;;;26.13;68.44
10202;BME280;5143;42.584;23.164;2023-08-06T09:16:14;91609.16;;;26.41;66.40
10202;BME280;5143;42.584;23.164;2023-08-06T09:18:41;91586.44;;;25.67;70.45
10202;BME280;5143;42.584;23.164;2023-08-06T09:21:13;91603.72;;;25.75;71.66
10202;BME280;5143;42.584;23.164;2023-08-06T09:23:41;91599.25;;;25.16;71.40
10202;BME280;5143;42.584;23.164;2023-08-06T09:26:11;91586.66;;;25.05;73.03
10202;BME280;5143;42.584;23.164;2023-08-06T09:28:38;91592.34;;;24.96;71.66
10202;BME280;5143;42.584;23.164;2023-08-06T09:31:08;91595.03;;;25.27;73.70
10202;BME280;5143;42.584;23.164;2023-08-06T09:33:36;91589.69;;;25.52;72.23
10202;BME280;5143;42.584;23.164;2023-08-06T09:36:07;91592.06;;;25.78;70.01
10202;BME280;5143;42.584;23.164;2023-08-06T09:38:38;91599.16;;;26.03;71.10
10202;BME280;5143;42.584;23.164;2023-08-06T09:41:06;91589.19;;;26.11;72.60
10202;BME280;5143;42.584;23.164;2023-08-06T09:43:39;91573.56;;;25.85;71.36
10202;BME280;5143;42.584;23.164;2023-08-06T09:46:11;91595.53;;;25.56;70.22
10202;BME280;5143;42.584;23.164;2023-08-06T09:48:38;91599.41;;;25.30;71.07
10202;BME280;5143;42.584;23.164;2023-08-06T09:51:08;91580.31;;;24.93;74.02
10202;BME280;5143;42.584;23.164;2023-08-06T09:53:35;91583.06;;;24.72;78.70
10202;BME280;5143;42.584;23.164;2023-08-06T09:56:05;91572.16;;;24.76;71.63
10202;BME280;5143;42.584;23.164;2023-08-06T09:58:32;91585.84;;;25.14;73.77
10202;BME280;5143;42.584;23.164;2023-08-06T10:00:59;91591.84;;;25.20;71.29
10202;BME280;5143;42.584;23.164;2023-08-06T10:03:27;91589.63;;;25.19;71.77
10202;BME280;5143;42.584;23.164;2023-08-06T10:05:55;91590.53;;;25.54;72.26
10202;BME280;5143;42.584;23.164;2023-08-06T10:08:22;91597.78;;;25.92;69.31
10202;BME280;5143;42.584;23.164;2023-08-06T10:10:49;91606.06;;;25.90;66.32
10202;BME280;5143;42.584;23.164;2023-08-06T10:13:18;91599.53;;;26.09;68.40
10202;BME280;5143;42.584;23.164;2023-08-06T10:15:47;91600.91;;;26.19;67.02
10202;BME280;5143;42.584;23.164;2023-08-06T10:18:16;91608.31;;;26.26;67.26
10202;BME280;5143;42.584;23.164;2023-08-06T10:20:46;91613.78;;;26.24;66.79
10202;BME280;5143;42.584;23.164;2023-08-06T10:23:13;91608.16;;;26.13;65.86
10202;BME280;5143;42.584;23.164;2023-08-06T10:25:41;91603.81;;;26.21;68.35
10202;BME280;5143;42.584;23.164;2023-08-06T10:28:08;91607.34;;;26.33;68.75
10202;BME280;5143;42.584;23.164;2023-08-06T10:30:43;91615.00;;;26.33;68.27
10202;BME280;5143;42.584;23.164;2023-08-06T10:33:10;91610.91;;;25.78;70.49
10202;BME280;5143;42.584;23.164;2023-08-06T10:35:40;91610.38;;;25.37;73.20
10202;BME280;5143;42.584;23.164;2023-08-06T10:38:10;91615.50;;;25.41;73.24
10202;BME280;5143;42.584;23.164;2023-08-06T10:40:37;91617.75;;;25.54;72.47
10202;BME280;5143;42.584;23.164;2023-08-06T10:43:05;91615.84;;;25.68;71.79
10202;BME280;5143;42.584;23.164;2023-08-06T10:45:37;91615.09;;;25.56;72.79
10202;BME280;5143;42.584;23.164;2023-08-06T10:48:06;91618.16;;;25.39;77.03
10202;BME280;5143;42.584;23.164;2023-08-06T10:50:33;91611.00;;;25.14;80.72
10202;BME280;5143;42.584;23.164;2023-08-06T10:53:04;91628.78;;;25.31;81.20
10202;BME280;5143;42.584;23.164;2023-08-06T10:55:32;91639.16;;;25.61;83.23
10202;BME280;5143;42.584;23.164;2023-08-06T10:57:59;91632.94;;;25.95;81.35
10202;BME280;5143;42.584;23.164;2023-08-06T11:00:25;91635.50;;;26.03;81.23
10202;BME280;5143;42.584;23.164;2023-08-06T11:02:53;91629.38;;;26.27;85.67
10202;BME280;5143;42.584;23.164;2023-08-06T11:05:21;91622.06;;;26.69;77.45
10202;BME280;5143;42.584;23.164;2023-08-06T11:07:48;91616.91;;;26.07;76.27
10202;BME280;5143;42.584;23.164;2023-08-06T11:10:16;91620.25;;;25.83;78.05
10202;BME280;5143;42.584;23.164;2023-08-06T11:12:43;91614.56;;;25.92;84.63
10202;BME280;5143;42.584;23.164;2023-08-06T11:15:10;91611.84;;;25.71;80.80
10202;BME280;5143;42.584;23.164;2023-08-06T11:17:40;91608.53;;;25.63;79.15
10202;BME280;5143;42.584;23.164;2023-08-06T11:20:07;91606.47;;;25.52;78.76
10202;BME280;5143;42.584;23.164;2023-08-06T11:22:37;91592.34;;;25.29;78.51
10202;BME280;5143;42.584;23.164;2023-08-06T11:25:05;91618.13;;;25.06;79.76
10202;BME280;5143;42.584;23.164;2023-08-06T11:27:32;91609.94;;;24.77;75.55
10202;BME280;5143;42.584;23.164;2023-08-06T11:30:00;91618.41;;;24.58;76.02
10202;BME280;5143;42.584;23.164;2023-08-06T11:32:27;91620.13;;;24.63;77.52
10202;BME280;5143;42.584;23.164;2023-08-06T11:34:53;91620.88;;;24.63;72.65
10202;BME280;5143;42.584;23.164;2023-08-06T11:37:21;91616.53;;;24.82;72.58
10202;BME280;5143;42.584;23.164;2023-08-06T11:39:51;91620.06;;;25.36;71.67
10202;BME280;5143;42.584;23.164;2023-08-06T11:42:18;91613.91;;;25.70;68.91
10202;BME280;5143;42.584;23.164;2023-08-06T11:44:45;91609.53;;;25.67;70.15
10202;BME280;5143;42.584;23.164;2023-08-06T11:47:13;91625.84;;;25.83;68.75
10202;BME280;5143;42.584;23.164;2023-08-06T11:49:42;91614.78;;;25.73;68.93
10202;BME280;5143;42.584;23.164;2023-08-06T11:52:13;91618.69;;;25.47;68.29
10202;BME280;5143;42.584;23.164;2023-08-06T11:54:40;91617.88;;;25.56;68.46
10202;BME280;5143;42.584;23.164;2023-08-06T11:57:09;91612.38;;;25.79;65.48
10202;BME280;5143;42.584;23.164;2023-08-06T11:59:37;91611.38;;;25.74;63.82
10202;BME280;5143;42.584;23.164;2023-08-06T12:02:08;91610.13;;;25.66;65.75
10202;BME280;5143;42.584;23.164;2023-08-06T12:04:58;91613.72;;;25.90;65.60
10202;BME280;5143;42.584;23.164;2023-08-06T12:07:28;91611.47;;;25.65;66.25
10202;BME280;5143;42.584;23.164;2023-08-06T12:09:54;91600.16;;;25.63;65.82
10202;BME280;5143;42.584;23.164;2023-08-06T12:12:23;91600.06;;;25.72;67.94
10202;BME280;5143;42.584;23.164;2023-08-06T12:14:49;91604.91;;;25.72;64.06
10202;BME280;5143;42.584;23.164;2023-08-06T12:17:16;91600.25;;;25.53;67.78
10202;BME280;5143;42.584;23.164;2023-08-06T12:19:44;91597.91;;;25.50;65.56
10202;BME280;5143;42.584;23.164;2023-08-06T12:22:11;91596.19;;;25.45;66.74
10202;BME280;5143;42.584;23.164;2023-08-06T12:41:17;91598.84;;;27.26;62.00
10202;BME280;5143;42.584;23.164;2023-08-06T12:43:44;91608.19;;;26.82;62.11
10202;BME280;5143;42.584;23.164;2023-08-06T12:46:11;91613.78;;;26.59;62.85
10202;BME280;5143;42.584;23.164;2023-08-06T12:48:38;91605.00;;;26.76;59.73
10202;BME280;5143;42.584;23.164;2023-08-06T12:51:05;91601.13;;;26.70;60.49
10202;BME280;5143;42.584;23.164;2023-08-06T12:53:31;91611.56;;;27.04;60.43
10202;BME280;5143;42.584;23.164;2023-08-06T12:55:58;91612.84;;;27.26;61.80
10202;BME280;5143;42.584;23.164;2023-08-06T12:58:26;91600.22;;;27.50;62.46
10202;BME280;5143;42.584;23.164;2023-08-06T13:00:53;91597.94;;;27.72;60.42
10202;BME280;5143;42.584;23.164;2023-08-06T13:03:20;91592.63;;;27.65;60.49
10202;BME280;5143;42.584;23.164;2023-08-06T13:05:47;91587.81;;;27.05;58.30
10202;BME280;5143;42.584;23.164;2023-08-06T13:08:14;91587.00;;;26.91;60.95
10202;BME280;5143;42.584;23.164;2023-08-06T13:10:40;91588.72;;;26.84;62.34
10202;BME280;5143;42.584;23.164;2023-08-06T13:13:07;91591.91;;;26.56;63.72